createdAt,value
2022-11-22T00:00:31.992Z,26.35
2022-11-22T00:05:35.105Z,24.58
2022-11-22T00:10:39.319Z,30.70
2022-11-22T00:15:42.024Z,28.15
2022-11-22T00:20:44.739Z,32.92
2022-11-22T00:25:48.980Z,29.83
2022-11-22T00:30:52.514Z,31.02
2022-11-22T00:35:55.286Z,28.08
2022-11-22T00:40:59.370Z,28.60
2022-11-22T00:46:02.491Z,31.05
2022-11-22T00:51:05.438Z,27.67
2022-11-22T00:56:10.688Z,22.90
2022-11-22T01:01:13.512Z,25.30
2022-11-22T01:06:16.403Z,25.92
2022-11-22T01:11:20.624Z,23.85
2022-11-22T01:16:23.352Z,24.25
2022-11-22T01:21:26.111Z,28.17
2022-11-22T01:26:30.221Z,22.05
2022-11-22T01:31:33.375Z,22.70
2022-11-22T01:36:36.217Z,38.30
2022-11-22T01:41:40.410Z,28.52
2022-11-22T01:46:43.449Z,22.73
2022-11-22T01:51:51.449Z,26.20
2022-11-22T01:56:58.996Z,21.25
2022-11-22T02:02:03.282Z,20.48
2022-11-22T02:07:12.180Z,27.15
2022-11-22T02:12:18.851Z,21.35
2022-11-22T02:17:21.622Z,20.52
2022-11-22T02:22:32.278Z,24.23
2022-11-22T02:27:36.436Z,22.08
2022-11-22T02:32:39.199Z,22.42
2022-11-22T02:37:41.974Z,20.08
2022-11-22T02:42:51.722Z,24.02
2022-11-22T02:47:54.526Z,20.73
2022-11-22T02:52:57.272Z,20.38
2022-11-22T02:58:01.515Z,17.55
2022-11-22T03:03:04.344Z,21.40
2022-11-22T03:08:07.274Z,20.45
2022-11-22T03:13:11.388Z,26.85
2022-11-22T03:18:14.219Z,18.15
2022-11-22T03:23:17.131Z,21.45
2022-11-22T03:28:21.203Z,24.98
2022-11-22T03:33:23.963Z,24.20
2022-11-22T03:38:26.779Z,26.00
2022-11-22T03:43:30.987Z,23.50
2022-11-22T03:48:34.699Z,22.20
2022-11-22T03:53:38.032Z,23.77
2022-11-22T03:58:42.151Z,21.75
2022-11-22T04:03:44.975Z,21.75
2022-11-22T04:08:47.900Z,23.52
2022-11-22T04:14:09.428Z,27.10
2022-11-22T04:19:12.283Z,24.20
2022-11-22T04:24:32.929Z,22.60
2022-11-22T04:29:37.079Z,27.13
2022-11-22T04:34:39.862Z,24.92
2022-11-22T04:39:42.654Z,22.67
2022-11-22T04:44:46.910Z,20.15
2022-11-22T04:49:49.664Z,21.48
2022-11-22T04:54:52.425Z,21.40
2022-11-22T04:59:56.554Z,20.15
2022-11-22T05:04:59.321Z,23.33
2022-11-22T05:10:02.082Z,21.80
2022-11-22T05:15:07.363Z,32.42
2022-11-22T05:20:11.556Z,23.05
2022-11-22T05:25:14.374Z,20.00
2022-11-22T05:30:19.572Z,18.05
2022-11-22T05:35:22.435Z,21.60
2022-11-22T05:40:25.593Z,18.33
2022-11-22T05:45:29.699Z,14.43
2022-11-22T05:50:32.423Z,18.02
2022-11-22T05:55:35.439Z,14.20
2022-11-22T06:00:39.559Z,13.35
2022-11-22T06:05:42.352Z,10.88
2022-11-22T06:10:45.112Z,14.05
2022-11-22T06:15:49.213Z,10.70
2022-11-22T06:20:51.973Z,12.88
2022-11-22T06:25:59.484Z,11.95
2022-11-22T06:31:04.189Z,6.65
2022-11-22T06:36:08.592Z,7.20
2022-11-22T06:41:13.137Z,9.30
2022-11-22T06:46:18.372Z,14.68
2022-11-22T06:51:23.514Z,5.38
2022-11-22T06:56:28.235Z,9.90
2022-11-22T07:01:34.757Z,6.28
2022-11-22T07:06:39.360Z,6.07
2022-11-22T07:11:42.148Z,4.18
2022-11-22T07:16:46.231Z,7.75
2022-11-22T07:21:49.589Z,6.35
2022-11-22T07:26:52.349Z,7.28
2022-11-22T07:31:56.519Z,7.53
2022-11-22T07:37:03.550Z,7.30
2022-11-22T07:42:08.973Z,7.40
2022-11-22T07:47:19.816Z,8.57
2022-11-22T07:52:25.501Z,6.30
2022-11-22T07:57:28.306Z,9.05
2022-11-22T08:02:32.620Z,9.90
2022-11-22T08:07:35.451Z,10.48
2022-11-22T08:12:38.316Z,7.95
2022-11-22T08:17:42.759Z,6.53
2022-11-22T08:22:45.572Z,9.02
2022-11-22T08:27:48.312Z,5.30
2022-11-22T08:32:55.422Z,12.30
2022-11-22T08:37:58.258Z,9.98
2022-11-22T08:43:01.077Z,11.50
2022-11-22T08:48:05.362Z,7.22
2022-11-22T08:53:08.160Z,8.63
2022-11-22T08:58:10.965Z,9.68
2022-11-22T09:03:15.223Z,5.82
2022-11-22T09:13:23.830Z,4.03
2022-11-22T09:18:28.029Z,6.57
2022-11-22T09:23:31.300Z,6.68
2022-11-22T09:28:35.041Z,22.17
2022-11-22T09:33:40.748Z,8.38
2022-11-22T09:38:43.898Z,10.45
2022-11-22T09:43:54.594Z,10.85
2022-11-22T09:49:19.447Z,14.82
2022-11-22T09:54:27.166Z,8.70
2022-11-22T09:59:34.104Z,10.10
2022-11-22T10:04:41.167Z,8.32
2022-11-22T10:09:52.190Z,7.93
2022-11-22T10:15:00.043Z,7.80
2022-11-22T10:20:08.234Z,7.55
2022-11-22T10:25:17.415Z,11.07
2022-11-22T10:30:22.251Z,8.15
2022-11-22T10:35:40.020Z,7.07
2022-11-22T10:40:50.859Z,9.07
2022-11-22T10:46:01.175Z,12.63
2022-11-22T10:51:15.563Z,7.38
2022-11-22T10:56:25.880Z,8.93
2022-11-22T11:01:37.026Z,5.03
2022-11-22T11:12:14.526Z,6.72
2022-11-22T11:17:22.169Z,6.00
2022-11-22T11:22:51.821Z,7.38
2022-11-22T11:27:52.271Z,6.38
2022-11-22T11:32:56.551Z,6.90
2022-11-22T11:38:00.712Z,4.68
2022-11-22T11:43:19.995Z,8.13
2022-11-22T11:48:41.107Z,8.30
2022-11-22T11:53:54.732Z,6.50
2022-11-22T11:59:00.258Z,5.32
2022-11-22T12:04:04.924Z,8.30
2022-11-22T12:09:29.628Z,4.03
2022-11-22T12:14:55.548Z,6.50
2022-11-22T12:20:04.009Z,5.97
2022-11-22T12:25:32.489Z,8.25
2022-11-22T12:30:47.389Z,3.70
2022-11-22T12:35:54.836Z,6.65
2022-11-22T12:41:02.743Z,3.13
2022-11-22T12:46:10.854Z,4.00
2022-11-22T12:51:18.841Z,8.50
2022-11-22T12:56:33.545Z,4.35
2022-11-22T13:01:44.297Z,6.03
2022-11-22T13:06:52.624Z,3.28
2022-11-22T13:12:01.534Z,4.60
2022-11-22T13:17:08.403Z,5.40
2022-11-22T13:22:22.640Z,6.75
2022-11-22T13:27:31.761Z,4.30
2022-11-22T13:32:36.090Z,5.22
2022-11-22T13:37:41.417Z,6.05
2022-11-22T13:42:45.542Z,7.90
2022-11-22T13:47:48.599Z,4.53
2022-11-22T13:52:53.683Z,4.10
2022-11-22T13:58:17.847Z,6.50
2022-11-22T14:03:38.374Z,5.38
2022-11-22T14:08:41.474Z,6.15
2022-11-22T14:13:54.140Z,5.38
2022-11-22T14:19:06.969Z,5.80
2022-11-22T14:24:18.383Z,5.68
2022-11-22T14:29:53.793Z,5.22
2022-11-22T14:35:29.502Z,3.92
2022-11-22T14:40:35.933Z,4.22
2022-11-22T14:45:44.308Z,6.57
2022-11-22T14:50:52.456Z,4.13
2022-11-22T14:56:03.642Z,4.22
2022-11-22T15:01:43.696Z,4.50
2022-11-22T15:09:17.860Z,6.25
2022-11-22T15:12:34.579Z,4.38
2022-11-22T16:01:19.372Z,3.38
2022-11-22T16:06:26.476Z,7.63
2022-11-22T16:11:31.699Z,9.18
2022-11-22T16:16:35.403Z,4.63
2022-11-22T16:21:39.478Z,7.90
2022-11-22T16:26:51.751Z,10.73
2022-11-22T16:32:01.023Z,6.45
2022-11-22T16:37:28.326Z,3.08
2022-11-22T16:42:33.188Z,3.08
2022-11-22T16:47:36.038Z,9.85
2022-11-22T16:52:40.670Z,4.05
2022-11-22T16:57:43.927Z,4.35
2022-11-22T17:02:46.758Z,9.80
2022-11-22T17:07:50.882Z,9.80
2022-11-22T17:12:54.241Z,9.85
2022-11-22T17:17:57.018Z,7.15
2022-11-22T17:23:01.325Z,8.43
2022-11-22T17:28:04.179Z,15.88
2022-11-22T17:33:06.995Z,10.88
2022-11-22T17:38:12.327Z,11.48
2022-11-22T17:43:15.098Z,8.32
2022-11-22T17:48:18.261Z,10.05
2022-11-22T17:53:22.331Z,6.68
2022-11-22T17:58:25.095Z,8.70
2022-11-22T18:03:27.885Z,14.00
2022-11-22T18:08:32.061Z,8.60
2022-11-22T18:13:36.564Z,9.43
2022-11-22T18:18:57.111Z,13.43
2022-11-22T18:24:02.675Z,8.68
2022-11-22T18:34:29.191Z,6.28
2022-11-22T18:39:35.759Z,8.23
2022-11-22T18:44:39.187Z,5.55
2022-11-22T18:49:41.982Z,9.00
2022-11-22T18:54:46.643Z,10.70
2022-11-22T18:59:49.363Z,10.63
2022-11-22T19:04:53.458Z,8.57
2022-11-22T19:09:58.671Z,3.85
2022-11-22T19:15:01.704Z,8.25
2022-11-22T19:20:05.613Z,7.70
2022-11-22T19:25:10.437Z,8.73
2022-11-22T19:30:14.625Z,6.82
2022-11-22T19:35:17.588Z,5.30
2022-11-22T19:40:21.681Z,7.18
2022-11-22T19:45:24.439Z,5.97
2022-11-22T19:50:27.121Z,8.15
2022-11-22T19:55:31.178Z,8.20
2022-11-22T20:00:34.252Z,4.05
2022-11-22T20:05:36.994Z,5.88
2022-11-22T20:10:41.027Z,5.53
2022-11-22T20:15:43.707Z,3.90
2022-11-22T20:25:50.381Z,5.32
2022-11-22T20:30:53.863Z,3.83
2022-11-22T20:36:02.834Z,6.10
2022-11-22T20:41:07.557Z,3.95
2022-11-22T20:46:12.291Z,2.45
2022-11-22T20:51:17.287Z,7.68
2022-11-22T20:56:21.891Z,1.75
2022-11-22T21:01:26.890Z,2.72
2022-11-22T21:06:29.874Z,2.35
2022-11-22T21:11:34.844Z,1.00
2022-11-22T21:16:37.631Z,1.67
2022-11-22T21:21:40.431Z,0.98
2022-11-22T21:26:44.565Z,1.27
2022-11-22T21:31:47.368Z,1.63
2022-11-22T21:36:50.176Z,1.33
2022-11-22T21:41:54.767Z,1.08
2022-11-22T21:46:57.489Z,1.10
2022-11-22T21:52:00.220Z,1.98
2022-11-22T21:57:04.588Z,1.25
2022-11-22T22:02:07.379Z,0.80
2022-11-22T22:07:29.530Z,1.73
2022-11-22T22:12:35.231Z,3.30
2022-11-22T22:17:37.987Z,1.55
2022-11-22T22:22:40.722Z,2.55
2022-11-22T22:27:45.707Z,1.25
2022-11-22T22:32:48.436Z,1.00
2022-11-22T22:37:51.184Z,0.73
2022-11-22T22:42:55.238Z,1.42
2022-11-22T22:47:59.340Z,1.45
2022-11-22T22:53:02.137Z,1.00
2022-11-22T22:58:07.060Z,2.25
2022-11-22T23:03:12.181Z,1.73
2022-11-22T23:08:15.114Z,1.30
2022-11-22T23:13:19.312Z,8.02
2022-11-22T23:18:22.066Z,18.38
2022-11-22T23:23:24.856Z,1.33
2022-11-22T23:28:29.982Z,1.80
2022-11-22T23:33:32.871Z,0.85
2022-11-22T23:38:36.065Z,0.93
2022-11-22T23:43:40.183Z,1.35
2022-11-22T23:48:43.116Z,5.05
2022-11-22T23:53:45.894Z,4.20
2022-11-22T23:58:50.585Z,3.97
